sensor_id;sensor_type;location;lat;lon;timestamp;temperature;humidity
2190;DHT22;1101;51.056;7.262;2022-07-25T00:02:12;21.20;72.50
2190;DHT22;1101;51.056;7.262;2022-07-25T00:04:41;21.10;72.40
2190;DHT22;1101;51.056;7.262;2022-07-25T00:07:09;21.10;72.50
2190;DHT22;1101;51.056;7.262;2022-07-25T00:09:37;21.00;72.50
2190;DHT22;1101;51.056;7.262;2022-07-25T00:12:06;21.00;72.50
2190;DHT22;1101;51.056;7.262;2022-07-25T00:14:38;20.90;72.60
2190;DHT22;1101;51.056;7.262;2022-07-25T00:17:06;20.90;72.70
2190;DHT22;1101;51.056;7.262;2022-07-25T00:19:34;20.90;72.80
2190;DHT22;1101;51.056;7.262;2022-07-25T00:22:02;20.80;72.80
2190;DHT22;1101;51.056;7.262;2022-07-25T00:24:29;20.80;73.00
2190;DHT22;1101;51.056;7.262;2022-07-25T00:26:57;20.70;73.10
2190;DHT22;1101;51.056;7.262;2022-07-25T00:29:25;20.70;73.10
2190;DHT22;1101;51.056;7.262;2022-07-25T00:31:54;20.70;73.20
2190;DHT22;1101;51.056;7.262;2022-07-25T00:34:22;20.60;73.20
2190;DHT22;1101;51.056;7.262;2022-07-25T00:36:51;20.60;73.40
2190;DHT22;1101;51.056;7.262;2022-07-25T00:39:19;20.50;73.40
2190;DHT22;1101;51.056;7.262;2022-07-25T00:41:46;20.50;73.60
2190;DHT22;1101;51.056;7.262;2022-07-25T00:44:22;20.40;73.60
2190;DHT22;1101;51.056;7.262;2022-07-25T00:46:50;20.40;73.70
2190;DHT22;1101;51.056;7.262;2022-07-25T00:49:20;20.30;73.80
2190;DHT22;1101;51.056;7.262;2022-07-25T00:51:49;20.30;73.80
2190;DHT22;1101;51.056;7.262;2022-07-25T00:54:18;20.30;74.00
2190;DHT22;1101;51.056;7.262;2022-07-25T00:56:47;20.20;74.00
2190;DHT22;1101;51.056;7.262;2022-07-25T00:59:15;20.20;74.00
2190;DHT22;1101;51.056;7.262;2022-07-25T01:01:43;20.10;74.00
2190;DHT22;1101;51.056;7.262;2022-07-25T01:04:14;20.10;74.00
2190;DHT22;1101;51.056;7.262;2022-07-25T01:06:44;20.10;74.10
2190;DHT22;1101;51.056;7.262;2022-07-25T01:09:12;20.10;74.20
2190;DHT22;1101;51.056;7.262;2022-07-25T01:11:40;20.10;74.30
2190;DHT22;1101;51.056;7.262;2022-07-25T01:14:08;20.00;74.30
2190;DHT22;1101;51.056;7.262;2022-07-25T01:16:35;20.00;74.40
2190;DHT22;1101;51.056;7.262;2022-07-25T01:19:03;19.90;74.40
2190;DHT22;1101;51.056;7.262;2022-07-25T01:21:35;19.90;74.50
2190;DHT22;1101;51.056;7.262;2022-07-25T01:24:04;19.80;74.60
2190;DHT22;1101;51.056;7.262;2022-07-25T01:26:32;19.80;74.70
2190;DHT22;1101;51.056;7.262;2022-07-25T01:29:00;19.70;74.60
2190;DHT22;1101;51.056;7.262;2022-07-25T01:31:28;19.70;74.60
2190;DHT22;1101;51.056;7.262;2022-07-25T01:33:56;19.70;74.70
2190;DHT22;1101;51.056;7.262;2022-07-25T01:36:24;19.70;74.80
2190;DHT22;1101;51.056;7.262;2022-07-25T01:38:53;19.60;74.80
2190;DHT22;1101;51.056;7.262;2022-07-25T01:41:21;19.60;74.90
2190;DHT22;1101;51.056;7.262;2022-07-25T01:43:49;19.50;75.00
2190;DHT22;1101;51.056;7.262;2022-07-25T01:46:16;19.50;75.10
2190;DHT22;1101;51.056;7.262;2022-07-25T01:48:44;19.50;75.10
2190;DHT22;1101;51.056;7.262;2022-07-25T01:51:12;19.50;75.20
2190;DHT22;1101;51.056;7.262;2022-07-25T01:53:46;19.50;75.10
2190;DHT22;1101;51.056;7.262;2022-07-25T01:56:15;19.50;75.10
2190;DHT22;1101;51.056;7.262;2022-07-25T01:58:46;19.40;75.10
2190;DHT22;1101;51.056;7.262;2022-07-25T02:01:14;19.40;75.20
2190;DHT22;1101;51.056;7.262;2022-07-25T02:03:42;19.40;75.30
2190;DHT22;1101;51.056;7.262;2022-07-25T02:06:09;19.40;75.40
2190;DHT22;1101;51.056;7.262;2022-07-25T02:08:37;19.30;75.30
2190;DHT22;1101;51.056;7.262;2022-07-25T02:11:07;19.30;75.40
2190;DHT22;1101;51.056;7.262;2022-07-25T02:13:37;19.20;75.50
2190;DHT22;1101;51.056;7.262;2022-07-25T02:16:08;19.20;75.60
2190;DHT22;1101;51.056;7.262;2022-07-25T02:18:36;19.20;75.60
2190;DHT22;1101;51.056;7.262;2022-07-25T02:21:04;19.20;75.70
2190;DHT22;1101;51.056;7.262;2022-07-25T02:23:40;19.20;75.70
2190;DHT22;1101;51.056;7.262;2022-07-25T02:26:08;19.10;75.70
2190;DHT22;1101;51.056;7.262;2022-07-25T02:28:37;19.10;75.70
2190;DHT22;1101;51.056;7.262;2022-07-25T02:31:06;19.10;75.80
2190;DHT22;1101;51.056;7.262;2022-07-25T02:33:34;19.00;75.70
2190;DHT22;1101;51.056;7.262;2022-07-25T02:36:02;19.00;75.70
2190;DHT22;1101;51.056;7.262;2022-07-25T02:38:30;19.00;75.80
2190;DHT22;1101;51.056;7.262;2022-07-25T02:40:58;19.00;75.80
2190;DHT22;1101;51.056;7.262;2022-07-25T02:43:26;19.00;75.90
2190;DHT22;1101;51.056;7.262;2022-07-25T02:45:55;18.90;75.90
2190;DHT22;1101;51.056;7.262;2022-07-25T02:48:23;18.90;76.00
2190;DHT22;1101;51.056;7.262;2022-07-25T02:50:50;18.90;76.00
2190;DHT22;1101;51.056;7.262;2022-07-25T02:53:18;18.90;76.10
2190;DHT22;1101;51.056;7.262;2022-07-25T02:56:07;18.90;76.10
2190;DHT22;1101;51.056;7.262;2022-07-25T02:58:34;18.80;76.00
2190;DHT22;1101;51.056;7.262;2022-07-25T03:01:06;18.80;75.90
2190;DHT22;1101;51.056;7.262;2022-07-25T03:03:34;18.80;75.90
2190;DHT22;1101;51.056;7.262;2022-07-25T03:06:02;18.80;75.90
2190;DHT22;1101;51.056;7.262;2022-07-25T03:08:30;18.80;75.80
2190;DHT22;1101;51.056;7.262;2022-07-25T03:10:58;18.80;75.80
2190;DHT22;1101;51.056;7.262;2022-07-25T03:13:25;18.90;75.90
2190;DHT22;1101;51.056;7.262;2022-07-25T03:15:54;18.80;75.90
2190;DHT22;1101;51.056;7.262;2022-07-25T03:18:23;18.80;75.80
2190;DHT22;1101;51.056;7.262;2022-07-25T03:20:51;18.80;75.80
2190;DHT22;1101;51.056;7.262;2022-07-25T03:23:19;18.80;75.80
2190;DHT22;1101;51.056;7.262;2022-07-25T03:25:47;18.80;75.80
2190;DHT22;1101;51.056;7.262;2022-07-25T03:28:15;18.70;75.80
2190;DHT22;1101;51.056;7.262;2022-07-25T03:30:42;18.70;75.80
2190;DHT22;1101;51.056;7.262;2022-07-25T03:33:10;18.70;75.80
2190;DHT22;1101;51.056;7.262;2022-07-25T03:35:39;18.70;75.90
2190;DHT22;1101;51.056;7.262;2022-07-25T03:38:07;18.70;75.90
2190;DHT22;1101;51.056;7.262;2022-07-25T03:40:35;18.70;75.90
2190;DHT22;1101;51.056;7.262;2022-07-25T03:43:03;18.60;75.80
2190;DHT22;1101;51.056;7.262;2022-07-25T03:45:31;18.60;75.90
2190;DHT22;1101;51.056;7.262;2022-07-25T03:48:00;18.60;76.00
2190;DHT22;1101;51.056;7.262;2022-07-25T03:50:28;18.60;76.00
2190;DHT22;1101;51.056;7.262;2022-07-25T03:52:57;18.60;76.20
2190;DHT22;1101;51.056;7.262;2022-07-25T03:55:25;18.60;76.10
2190;DHT22;1101;51.056;7.262;2022-07-25T03:57:53;18.50;76.10
2190;DHT22;1101;51.056;7.262;2022-07-25T04:00:22;18.50;76.20
2190;DHT22;1101;51.056;7.262;2022-07-25T04:02:52;18.50;76.20
2190;DHT22;1101;51.056;7.262;2022-07-25T04:05:20;18.50;76.20
2190;DHT22;1101;51.056;7.262;2022-07-25T04:07:48;18.50;76.30
2190;DHT22;1101;51.056;7.262;2022-07-25T04:10:17;18.40;76.20
2190;DHT22;1101;51.056;7.262;2022-07-25T04:12:45;18.40;76.30
2190;DHT22;1101;51.056;7.262;2022-07-25T04:15:13;18.50;76.40
2190;DHT22;1101;51.056;7.262;2022-07-25T04:17:41;18.50;76.40
2190;DHT22;1101;51.056;7.262;2022-07-25T04:20:11;18.50;76.40
2190;DHT22;1101;51.056;7.262;2022-07-25T04:22:39;18.50;76.40
2190;DHT22;1101;51.056;7.262;2022-07-25T04:25:11;18.50;76.40
2190;DHT22;1101;51.056;7.262;2022-07-25T04:27:41;18.60;76.40
2190;DHT22;1101;51.056;7.262;2022-07-25T04:30:10;18.60;77.10
2190;DHT22;1101;51.056;7.262;2022-07-25T04:32:49;18.60;76.30
2190;DHT22;1101;51.056;7.262;2022-07-25T04:35:17;18.70;76.30
2190;DHT22;1101;51.056;7.262;2022-07-25T04:37:44;18.70;76.20
2190;DHT22;1101;51.056;7.262;2022-07-25T04:40:12;18.80;76.30
2190;DHT22;1101;51.056;7.262;2022-07-25T04:42:41;18.80;76.20
2190;DHT22;1101;51.056;7.262;2022-07-25T04:45:10;18.80;76.20
2190;DHT22;1101;51.056;7.262;2022-07-25T04:47:38;18.90;76.30
2190;DHT22;1101;51.056;7.262;2022-07-25T04:50:06;18.90;76.20
2190;DHT22;1101;51.056;7.262;2022-07-25T04:52:40;18.90;76.50
2190;DHT22;1101;51.056;7.262;2022-07-25T04:55:08;19.00;76.60
2190;DHT22;1101;51.056;7.262;2022-07-25T04:57:36;19.10;76.80
2190;DHT22;1101;51.056;7.262;2022-07-25T05:00:07;19.10;76.70
2190;DHT22;1101;51.056;7.262;2022-07-25T05:02:38;19.20;76.80
2190;DHT22;1101;51.056;7.262;2022-07-25T05:05:08;19.20;76.70
2190;DHT22;1101;51.056;7.262;2022-07-25T05:07:47;19.30;76.90
2190;DHT22;1101;51.056;7.262;2022-07-25T05:10:15;19.30;77.00
2190;DHT22;1101;51.056;7.262;2022-07-25T05:12:43;19.40;76.90
2190;DHT22;1101;51.056;7.262;2022-07-25T05:15:12;19.50;76.90
2190;DHT22;1101;51.056;7.262;2022-07-25T05:17:40;19.50;76.80
2190;DHT22;1101;51.056;7.262;2022-07-25T05:20:09;19.60;76.80
2190;DHT22;1101;51.056;7.262;2022-07-25T05:22:38;19.70;76.80
2190;DHT22;1101;51.056;7.262;2022-07-25T05:25:07;19.80;76.80
2190;DHT22;1101;51.056;7.262;2022-07-25T05:27:35;19.90;76.90
2190;DHT22;1101;51.056;7.262;2022-07-25T05:30:05;19.90;76.70
2190;DHT22;1101;51.056;7.262;2022-07-25T05:32:35;20.00;76.70
2190;DHT22;1101;51.056;7.262;2022-07-25T05:35:04;20.20;76.70
2190;DHT22;1101;51.056;7.262;2022-07-25T05:37:33;20.30;76.40
2190;DHT22;1101;51.056;7.262;2022-07-25T05:40:01;20.40;76.30
2190;DHT22;1101;51.056;7.262;2022-07-25T05:42:29;20.50;76.20
2190;DHT22;1101;51.056;7.262;2022-07-25T05:44:57;20.60;76.10
2190;DHT22;1101;51.056;7.262;2022-07-25T05:47:25;20.70;76.00
2190;DHT22;1101;51.056;7.262;2022-07-25T05:49:54;20.80;76.00
2190;DHT22;1101;51.056;7.262;2022-07-25T05:52:22;20.90;75.90
2190;DHT22;1101;51.056;7.262;2022-07-25T05:54:50;20.90;75.70
2190;DHT22;1101;51.056;7.262;2022-07-25T05:57:18;21.00;75.70
2190;DHT22;1101;51.056;7.262;2022-07-25T05:59:45;21.10;75.70
2190;DHT22;1101;51.056;7.262;2022-07-25T06:02:13;21.10;75.60
2190;DHT22;1101;51.056;7.262;2022-07-25T06:04:41;21.10;75.50
2190;DHT22;1101;51.056;7.262;2022-07-25T06:07:10;21.20;75.60
2190;DHT22;1101;51.056;7.262;2022-07-25T06:09:42;21.30;75.60
2190;DHT22;1101;51.056;7.262;2022-07-25T06:12:10;21.30;75.40
2190;DHT22;1101;51.056;7.262;2022-07-25T06:14:39;21.40;75.40
2190;DHT22;1101;51.056;7.262;2022-07-25T06:17:08;21.40;75.40
2190;DHT22;1101;51.056;7.262;2022-07-25T06:19:36;21.50;75.50
2190;DHT22;1101;51.056;7.262;2022-07-25T06:22:04;21.50;75.50
2190;DHT22;1101;51.056;7.262;2022-07-25T06:24:34;21.50;75.50
2190;DHT22;1101;51.056;7.262;2022-07-25T06:27:02;21.50;75.40
2190;DHT22;1101;51.056;7.262;2022-07-25T06:29:30;21.60;75.50
2190;DHT22;1101;51.056;7.262;2022-07-25T06:31:58;21.60;75.40
2190;DHT22;1101;51.056;7.262;2022-07-25T06:34:26;21.70;75.40
2190;DHT22;1101;51.056;7.262;2022-07-25T06:36:54;21.80;75.40
2190;DHT22;1101;51.056;7.262;2022-07-25T06:39:23;21.80;75.30
2190;DHT22;1101;51.056;7.262;2022-07-25T06:41:52;22.00;75.40
2190;DHT22;1101;51.056;7.262;2022-07-25T06:44:20;22.00;75.20
2190;DHT22;1101;51.056;7.262;2022-07-25T06:46:48;22.00;75.20
2190;DHT22;1101;51.056;7.262;2022-07-25T06:49:16;22.20;75.30
2190;DHT22;1101;51.056;7.262;2022-07-25T06:51:44;22.20;75.20
2190;DHT22;1101;51.056;7.262;2022-07-25T06:54:12;22.40;75.20
2190;DHT22;1101;51.056;7.262;2022-07-25T06:56:41;22.50;75.10
2190;DHT22;1101;51.056;7.262;2022-07-25T06:59:10;22.60;75.00
2190;DHT22;1101;51.056;7.262;2022-07-25T07:01:38;22.60;74.90
2190;DHT22;1101;51.056;7.262;2022-07-25T07:04:05;22.70;74.90
2190;DHT22;1101;51.056;7.262;2022-07-25T07:06:34;22.80;74.80
2190;DHT22;1101;51.056;7.262;2022-07-25T07:09:04;23.00;74.80
2190;DHT22;1101;51.056;7.262;2022-07-25T07:11:32;23.10;74.70
2190;DHT22;1101;51.056;7.262;2022-07-25T07:14:00;23.20;74.60
2190;DHT22;1101;51.056;7.262;2022-07-25T07:16:30;23.30;74.50
2190;DHT22;1101;51.056;7.262;2022-07-25T07:18:58;23.40;74.50
2190;DHT22;1101;51.056;7.262;2022-07-25T07:21:26;23.60;75.20
2190;DHT22;1101;51.056;7.262;2022-07-25T07:23:54;23.70;74.40
2190;DHT22;1101;51.056;7.262;2022-07-25T07:26:22;23.80;74.20
2190;DHT22;1101;51.056;7.262;2022-07-25T07:28:50;23.90;74.10
2190;DHT22;1101;51.056;7.262;2022-07-25T07:31:20;24.00;74.20
2190;DHT22;1101;51.056;7.262;2022-07-25T07:33:49;24.00;74.20
2190;DHT22;1101;51.056;7.262;2022-07-25T07:36:17;24.00;74.10
2190;DHT22;1101;51.056;7.262;2022-07-25T07:38:44;24.00;74.10
2190;DHT22;1101;51.056;7.262;2022-07-25T07:41:14;24.10;74.20
2190;DHT22;1101;51.056;7.262;2022-07-25T07:43:42;24.10;74.60
2190;DHT22;1101;51.056;7.262;2022-07-25T07:46:09;24.20;74.20
2190;DHT22;1101;51.056;7.262;2022-07-25T07:48:38;24.40;74.30
2190;DHT22;1101;51.056;7.262;2022-07-25T07:51:07;24.50;74.20
2190;DHT22;1101;51.056;7.262;2022-07-25T07:53:35;24.70;74.20
2190;DHT22;1101;51.056;7.262;2022-07-25T07:56:23;24.90;74.20
2190;DHT22;1101;51.056;7.262;2022-07-25T07:58:51;25.20;74.00
2190;DHT22;1101;51.056;7.262;2022-07-25T08:01:18;25.40;73.60
2190;DHT22;1101;51.056;7.262;2022-07-25T08:03:46;25.60;73.40
2190;DHT22;1101;51.056;7.262;2022-07-25T08:06:16;25.80;73.20
2190;DHT22;1101;51.056;7.262;2022-07-25T08:08:43;26.00;73.10
2190;DHT22;1101;51.056;7.262;2022-07-25T08:11:11;26.20;72.80
2190;DHT22;1101;51.056;7.262;2022-07-25T08:13:39;26.40;72.70
2190;DHT22;1101;51.056;7.262;2022-07-25T08:16:07;26.50;72.50
2190;DHT22;1101;51.056;7.262;2022-07-25T08:18:37;26.70;72.40
2190;DHT22;1101;51.056;7.262;2022-07-25T08:21:05;26.80;72.10
2190;DHT22;1101;51.056;7.262;2022-07-25T08:23:35;26.90;71.90
2190;DHT22;1101;51.056;7.262;2022-07-25T08:26:05;27.00;71.80
2190;DHT22;1101;51.056;7.262;2022-07-25T08:28:34;27.10;71.60
2190;DHT22;1101;51.056;7.262;2022-07-25T08:31:01;27.10;71.50
2190;DHT22;1101;51.056;7.262;2022-07-25T08:33:29;27.20;71.50
2190;DHT22;1101;51.056;7.262;2022-07-25T08:35:57;27.30;71.60
2190;DHT22;1101;51.056;7.262;2022-07-25T08:38:26;27.40;71.50
2190;DHT22;1101;51.056;7.262;2022-07-25T08:40:56;27.40;71.30
2190;DHT22;1101;51.056;7.262;2022-07-25T08:43:25;27.60;71.20
2190;DHT22;1101;51.056;7.262;2022-07-25T08:45:54;27.70;70.90
2190;DHT22;1101;51.056;7.262;2022-07-25T08:48:24;27.80;70.90
2190;DHT22;1101;51.056;7.262;2022-07-25T08:50:54;27.80;70.70
2190;DHT22;1101;51.056;7.262;2022-07-25T08:53:24;27.80;70.70
2190;DHT22;1101;51.056;7.262;2022-07-25T08:56:00;27.80;70.50
2190;DHT22;1101;51.056;7.262;2022-07-25T08:58:38;27.70;70.40
2190;DHT22;1101;51.056;7.262;2022-07-25T09:01:07;27.70;70.50
2190;DHT22;1101;51.056;7.262;2022-07-25T09:03:35;27.60;70.40
2190;DHT22;1101;51.056;7.262;2022-07-25T09:06:13;27.60;70.50
2190;DHT22;1101;51.056;7.262;2022-07-25T09:08:50;27.70;70.60
2190;DHT22;1101;51.056;7.262;2022-07-25T09:11:31;27.60;70.70
2190;DHT22;1101;51.056;7.262;2022-07-25T09:14:02;27.60;70.70
2190;DHT22;1101;51.056;7.262;2022-07-25T09:16:31;27.60;70.70
2190;DHT22;1101;51.056;7.262;2022-07-25T09:19:11;27.70;70.50
2190;DHT22;1101;51.056;7.262;2022-07-25T09:21:40;27.70;70.50
2190;DHT22;1101;51.056;7.262;2022-07-25T09:24:11;27.80;70.60
2190;DHT22;1101;51.056;7.262;2022-07-25T09:26:45;27.80;70.50
2190;DHT22;1101;51.056;7.262;2022-07-25T09:29:19;27.90;70.40
2190;DHT22;1101;51.056;7.262;2022-07-25T09:31:47;27.90;70.30
2190;DHT22;1101;51.056;7.262;2022-07-25T09:34:27;28.00;70.10
2190;DHT22;1101;51.056;7.262;2022-07-25T09:36:55;28.10;69.90
2190;DHT22;1101;51.056;7.262;2022-07-25T09:39:32;28.20;69.50
2190;DHT22;1101;51.056;7.262;2022-07-25T09:42:12;28.30;69.10
2190;DHT22;1101;51.056;7.262;2022-07-25T09:44:40;28.40;69.20
2190;DHT22;1101;51.056;7.262;2022-07-25T09:47:13;28.60;69.20
2190;DHT22;1101;51.056;7.262;2022-07-25T09:49:43;28.70;69.00
2190;DHT22;1101;51.056;7.262;2022-07-25T09:52:13;28.80;68.70
2190;DHT22;1101;51.056;7.262;2022-07-25T09:54:43;28.90;68.60
2190;DHT22;1101;51.056;7.262;2022-07-25T09:57:12;29.00;68.60
2190;DHT22;1101;51.056;7.262;2022-07-25T09:59:40;29.20;68.50
2190;DHT22;1101;51.056;7.262;2022-07-25T10:02:10;29.30;68.30
2190;DHT22;1101;51.056;7.262;2022-07-25T10:04:46;29.40;68.10
2190;DHT22;1101;51.056;7.262;2022-07-25T10:07:15;29.40;67.90
2190;DHT22;1101;51.056;7.262;2022-07-25T10:09:47;29.40;67.60
2190;DHT22;1101;51.056;7.262;2022-07-25T10:12:20;29.30;67.60
2190;DHT22;1101;51.056;7.262;2022-07-25T10:15:06;29.20;68.00
2190;DHT22;1101;51.056;7.262;2022-07-25T10:17:36;29.20;67.90
2190;DHT22;1101;51.056;7.262;2022-07-25T10:20:07;29.20;67.90
2190;DHT22;1101;51.056;7.262;2022-07-25T10:22:37;29.20;67.80
2190;DHT22;1101;51.056;7.262;2022-07-25T10:25:26;29.00;67.30
2190;DHT22;1101;51.056;7.262;2022-07-25T10:28:07;28.90;67.60
2190;DHT22;1101;51.056;7.262;2022-07-25T10:30:37;28.70;67.80
2190;DHT22;1101;51.056;7.262;2022-07-25T10:33:10;28.50;67.40
2190;DHT22;1101;51.056;7.262;2022-07-25T10:35:39;28.30;68.20
2190;DHT22;1101;51.056;7.262;2022-07-25T10:38:08;28.20;68.60
2190;DHT22;1101;51.056;7.262;2022-07-25T10:40:37;28.00;68.60
2190;DHT22;1101;51.056;7.262;2022-07-25T10:43:08;27.90;69.30
2190;DHT22;1101;51.056;7.262;2022-07-25T10:45:40;27.70;69.70
2190;DHT22;1101;51.056;7.262;2022-07-25T10:48:11;27.50;69.80
2190;DHT22;1101;51.056;7.262;2022-07-25T10:50:47;27.30;70.40
2190;DHT22;1101;51.056;7.262;2022-07-25T10:53:33;27.10;70.90
2190;DHT22;1101;51.056;7.262;2022-07-25T10:56:04;27.10;71.10
2190;DHT22;1101;51.056;7.262;2022-07-25T10:58:49;27.00;71.20
2190;DHT22;1101;51.056;7.262;2022-07-25T11:01:21;27.00;71.40
2190;DHT22;1101;51.056;7.262;2022-07-25T11:03:50;27.00;71.30
2190;DHT22;1101;51.056;7.262;2022-07-25T11:06:29;27.00;71.70
2190;DHT22;1101;51.056;7.262;2022-07-25T11:08:58;26.90;71.60
2190;DHT22;1101;51.056;7.262;2022-07-25T11:11:36;26.90;72.00
2190;DHT22;1101;51.056;7.262;2022-07-25T11:14:15;26.90;72.30
2190;DHT22;1101;51.056;7.262;2022-07-25T11:16:43;26.90;72.20
2190;DHT22;1101;51.056;7.262;2022-07-25T11:19:16;27.00;71.90
2190;DHT22;1101;51.056;7.262;2022-07-25T11:21:45;27.00;71.70
2190;DHT22;1101;51.056;7.262;2022-07-25T11:24:13;27.10;71.70
2190;DHT22;1101;51.056;7.262;2022-07-25T11:26:46;27.00;71.20
2190;DHT22;1101;51.056;7.262;2022-07-25T11:29:19;27.00;71.50
2190;DHT22;1101;51.056;7.262;2022-07-25T11:31:51;27.20;71.60
2190;DHT22;1101;51.056;7.262;2022-07-25T11:34:22;27.40;71.40
2190;DHT22;1101;51.056;7.262;2022-07-25T11:36:51;27.60;70.90
2190;DHT22;1101;51.056;7.262;2022-07-25T11:39:24;27.70;70.60
2190;DHT22;1101;51.056;7.262;2022-07-25T11:42:00;27.70;70.30
2190;DHT22;1101;51.056;7.262;2022-07-25T11:44:35;27.70;70.20
2190;DHT22;1101;51.056;7.262;2022-07-25T11:47:05;27.70;70.30
2190;DHT22;1101;51.056;7.262;2022-07-25T11:49:43;27.70;70.10
2190;DHT22;1101;51.056;7.262;2022-07-25T11:52:19;27.70;70.40
2190;DHT22;1101;51.056;7.262;2022-07-25T11:54:51;27.60;70.40
2190;DHT22;1101;51.056;7.262;2022-07-25T11:57:20;27.50;70.30
2190;DHT22;1101;51.056;7.262;2022-07-25T11:59:50;27.50;70.60
2190;DHT22;1101;51.056;7.262;2022-07-25T12:02:23;27.40;70.50
2190;DHT22;1101;51.056;7.262;2022-07-25T12:04:56;27.60;70.80
2190;DHT22;1101;51.056;7.262;2022-07-25T12:07:35;27.70;70.50
2190;DHT22;1101;51.056;7.262;2022-07-25T12:10:04;27.80;70.40
2190;DHT22;1101;51.056;7.262;2022-07-25T12:12:44;28.00;70.20
2190;DHT22;1101;51.056;7.262;2022-07-25T12:15:15;28.20;69.90
2190;DHT22;1101;51.056;7.262;2022-07-25T12:17:43;28.40;69.60
2190;DHT22;1101;51.056;7.262;2022-07-25T12:20:15;28.50;69.50
2190;DHT22;1101;51.056;7.262;2022-07-25T12:22:43;28.40;69.00
2190;DHT22;1101;51.056;7.262;2022-07-25T12:25:12;28.30;68.80
2190;DHT22;1101;51.056;7.262;2022-07-25T12:27:40;28.20;68.40
2190;DHT22;1101;51.056;7.262;2022-07-25T12:30:09;28.10;69.10
2190;DHT22;1101;51.056;7.262;2022-07-25T12:32:39;28.10;68.90
2190;DHT22;1101;51.056;7.262;2022-07-25T12:35:11;28.10;69.20
2190;DHT22;1101;51.056;7.262;2022-07-25T12:37:40;28.20;69.20
2190;DHT22;1101;51.056;7.262;2022-07-25T12:40:09;28.30;68.90
2190;DHT22;1101;51.056;7.262;2022-07-25T12:42:37;28.40;69.00
2190;DHT22;1101;51.056;7.262;2022-07-25T12:45:06;28.50;68.70
2190;DHT22;1101;51.056;7.262;2022-07-25T12:47:35;28.50;68.50
2190;DHT22;1101;51.056;7.262;2022-07-25T12:50:06;28.50;68.60
2190;DHT22;1101;51.056;7.262;2022-07-25T12:52:34;28.50;68.00
2190;DHT22;1101;51.056;7.262;2022-07-25T12:55:04;28.50;68.30
2190;DHT22;1101;51.056;7.262;2022-07-25T12:57:32;28.50;68.20
2190;DHT22;1101;51.056;7.262;2022-07-25T13:00:00;28.40;67.90
2190;DHT22;1101;51.056;7.262;2022-07-25T13:02:28;28.40;67.70
2190;DHT22;1101;51.056;7.262;2022-07-25T13:04:56;28.30;67.80
2190;DHT22;1101;51.056;7.262;2022-07-25T13:07:26;28.30;67.70
2190;DHT22;1101;51.056;7.262;2022-07-25T13:09:54;28.20;67.50
2190;DHT22;1101;51.056;7.262;2022-07-25T13:12:21;28.20;67.40
2190;DHT22;1101;51.056;7.262;2022-07-25T13:14:49;28.10;67.90
2190;DHT22;1101;51.056;7.262;2022-07-25T13:17:17;28.10;68.20
2190;DHT22;1101;51.056;7.262;2022-07-25T13:19:52;28.10;67.80
2190;DHT22;1101;51.056;7.262;2022-07-25T13:22:20;28.10;67.80
2190;DHT22;1101;51.056;7.262;2022-07-25T13:24:50;28.10;67.80
2190;DHT22;1101;51.056;7.262;2022-07-25T13:27:18;28.10;67.50
2190;DHT22;1101;51.056;7.262;2022-07-25T13:29:46;28.20;67.80
2190;DHT22;1101;51.056;7.262;2022-07-25T13:32:19;28.30;68.10
2190;DHT22;1101;51.056;7.262;2022-07-25T13:34:48;28.40;67.80
2190;DHT22;1101;51.056;7.262;2022-07-25T13:37:16;28.50;67.50
2190;DHT22;1101;51.056;7.262;2022-07-25T13:39:44;28.60;67.40
2190;DHT22;1101;51.056;7.262;2022-07-25T13:42:13;28.60;67.40
2190;DHT22;1101;51.056;7.262;2022-07-25T13:44:41;28.60;67.60
2190;DHT22;1101;51.056;7.262;2022-07-25T13:47:09;28.50;67.50
2190;DHT22;1101;51.056;7.262;2022-07-25T13:49:37;28.50;67.30
2190;DHT22;1101;51.056;7.262;2022-07-25T13:52:06;28.40;67.20
2190;DHT22;1101;51.056;7.262;2022-07-25T13:54:33;28.30;67.10
2190;DHT22;1101;51.056;7.262;2022-07-25T13:57:02;28.20;67.20
2190;DHT22;1101;51.056;7.262;2022-07-25T13:59:31;28.10;67.00
2190;DHT22;1101;51.056;7.262;2022-07-25T14:01:59;27.90;67.60
2190;DHT22;1101;51.056;7.262;2022-07-25T14:04:28;27.80;67.60
2190;DHT22;1101;51.056;7.262;2022-07-25T14:06:58;27.70;67.90
2190;DHT22;1101;51.056;7.262;2022-07-25T14:09:26;27.60;68.00
2190;DHT22;1101;51.056;7.262;2022-07-25T14:11:54;27.60;68.20
2190;DHT22;1101;51.056;7.262;2022-07-25T14:14:22;27.70;68.30
2190;DHT22;1101;51.056;7.262;2022-07-25T14:16:53;27.70;68.30
2190;DHT22;1101;51.056;7.262;2022-07-25T14:19:21;27.70;68.20
2190;DHT22;1101;51.056;7.262;2022-07-25T14:21:49;27.70;67.80
2190;DHT22;1101;51.056;7.262;2022-07-25T14:24:17;27.70;67.90
2190;DHT22;1101;51.056;7.262;2022-07-25T14:26:45;27.70;68.30
2190;DHT22;1101;51.056;7.262;2022-07-25T14:29:14;27.80;68.10
2190;DHT22;1101;51.056;7.262;2022-07-25T14:31:42;27.90;67.90
2190;DHT22;1101;51.056;7.262;2022-07-25T14:34:11;27.90;67.40
2190;DHT22;1101;51.056;7.262;2022-07-25T14:36:41;27.90;68.00
2190;DHT22;1101;51.056;7.262;2022-07-25T14:39:10;28.00;67.80
2190;DHT22;1101;51.056;7.262;2022-07-25T14:41:38;28.20;67.80
2190;DHT22;1101;51.056;7.262;2022-07-25T14:44:06;28.40;67.60
2190;DHT22;1101;51.056;7.262;2022-07-25T14:46:34;28.50;67.60
2190;DHT22;1101;51.056;7.262;2022-07-25T14:49:02;28.40;66.80
2190;DHT22;1101;51.056;7.262;2022-07-25T14:51:32;28.30;66.50
2190;DHT22;1101;51.056;7.262;2022-07-25T14:54:00;28.20;65.90
2190;DHT22;1101;51.056;7.262;2022-07-25T14:56:28;28.20;65.80
2190;DHT22;1101;51.056;7.262;2022-07-25T14:58:57;28.00;65.90
2190;DHT22;1101;51.056;7.262;2022-07-25T15:01:24;27.80;66.50
2190;DHT22;1101;51.056;7.262;2022-07-25T15:03:52;27.80;67.30
2190;DHT22;1101;51.056;7.262;2022-07-25T15:06:21;27.80;67.00
2190;DHT22;1101;51.056;7.262;2022-07-25T15:08:56;27.70;67.00
2190;DHT22;1101;51.056;7.262;2022-07-25T15:11:24;27.70;67.20
2190;DHT22;1101;51.056;7.262;2022-07-25T15:13:51;27.60;66.00
2190;DHT22;1101;51.056;7.262;2022-07-25T15:16:19;27.50;66.80
2190;DHT22;1101;51.056;7.262;2022-07-25T15:18:47;27.50;67.30
2190;DHT22;1101;51.056;7.262;2022-07-25T15:21:35;27.40;66.90
2190;DHT22;1101;51.056;7.262;2022-07-25T15:24:05;27.30;67.10
2190;DHT22;1101;51.056;7.262;2022-07-25T15:26:33;27.30;67.10
2190;DHT22;1101;51.056;7.262;2022-07-25T15:29:00;27.20;67.40
2190;DHT22;1101;51.056;7.262;2022-07-25T15:31:28;27.10;67.80
2190;DHT22;1101;51.056;7.262;2022-07-25T15:33:56;27.10;67.80
2190;DHT22;1101;51.056;7.262;2022-07-25T15:36:24;26.90;67.50
2190;DHT22;1101;51.056;7.262;2022-07-25T15:38:55;26.80;67.80
2190;DHT22;1101;51.056;7.262;2022-07-25T15:41:24;26.70;68.20
2190;DHT22;1101;51.056;7.262;2022-07-25T15:43:52;26.70;68.40
2190;DHT22;1101;51.056;7.262;2022-07-25T15:46:20;26.60;68.40
2190;DHT22;1101;51.056;7.262;2022-07-25T15:48:48;26.50;68.50
2190;DHT22;1101;51.056;7.262;2022-07-25T15:51:16;26.50;68.60
2190;DHT22;1101;51.056;7.262;2022-07-25T15:53:44;26.50;68.80
2190;DHT22;1101;51.056;7.262;2022-07-25T15:56:13;26.50;68.60
2190;DHT22;1101;51.056;7.262;2022-07-25T15:58:43;26.50;68.60
2190;DHT22;1101;51.056;7.262;2022-07-25T16:01:11;26.40;68.50
2190;DHT22;1101;51.056;7.262;2022-07-25T16:03:39;26.40;68.40
2190;DHT22;1101;51.056;7.262;2022-07-25T16:06:07;26.40;68.50
2190;DHT22;1101;51.056;7.262;2022-07-25T16:08:35;26.30;68.40
2190;DHT22;1101;51.056;7.262;2022-07-25T16:11:03;26.20;68.50
2190;DHT22;1101;51.056;7.262;2022-07-25T16:13:31;26.10;68.70
2190;DHT22;1101;51.056;7.262;2022-07-25T16:16:01;26.10;68.70
2190;DHT22;1101;51.056;7.262;2022-07-25T16:18:28;26.00;68.60